sensor_id;sensor_type;location;lat;lon;timestamp;P1;durP1;ratioP1;P2;durP2;ratioP2
29550;SDS011;16488;52.396;10.696;2024-02-15T00:00:39;24.38;;;21.83;;
29550;SDS011;16488;52.396;10.696;2024-02-15T00:03:05;25.95;;;23.85;;
29550;SDS011;16488;52.396;10.696;2024-02-15T00:05:32;32.67;;;29.95;;
29550;SDS011;16488;52.396;10.696;2024-02-15T00:08:01;18.48;;;16.92;;
29550;SDS011;16488;52.396;10.696;2024-02-15T00:10:27;20.30;;;18.48;;
29550;SDS011;16488;52.396;10.696;2024-02-15T00:12:52;15.73;;;13.63;;
29550;SDS011;16488;52.396;10.696;2024-02-15T00:15:18;15.68;;;14.25;;
29550;SDS011;16488;52.396;10.696;2024-02-15T00:17:44;16.80;;;15.32;;
29550;SDS011;16488;52.396;10.696;2024-02-15T00:20:11;22.70;;;20.52;;
29550;SDS011;16488;52.396;10.696;2024-02-15T00:22:37;35.47;;;32.53;;
29550;SDS011;16488;52.396;10.696;2024-02-15T00:25:06;20.50;;;18.65;;
29550;SDS011;16488;52.396;10.696;2024-02-15T00:27:34;30.15;;;27.55;;
29550;SDS011;16488;52.396;10.696;2024-02-15T00:30:00;23.73;;;21.35;;
29550;SDS011;16488;52.396;10.696;2024-02-15T00:32:27;28.75;;;25.88;;
29550;SDS011;16488;52.396;10.696;2024-02-15T00:34:52;24.10;;;20.98;;
29550;SDS011;16488;52.396;10.696;2024-02-15T00:37:18;23.40;;;21.25;;
29550;SDS011;16488;52.396;10.696;2024-02-15T00:39:45;19.45;;;17.55;;
29550;SDS011;16488;52.396;10.696;2024-02-15T00:42:11;21.00;;;18.95;;
29550;SDS011;16488;52.396;10.696;2024-02-15T00:47:04;21.97;;;17.87;;
29550;SDS011;16488;52.396;10.696;2024-02-15T00:49:30;16.25;;;13.38;;
29550;SDS011;16488;52.396;10.696;2024-02-15T00:51:57;16.38;;;14.77;;
29550;SDS011;16488;52.396;10.696;2024-02-15T00:54:22;18.08;;;16.10;;
29550;SDS011;16488;52.396;10.696;2024-02-15T00:56:48;21.65;;;19.27;;
29550;SDS011;16488;52.396;10.696;2024-02-15T00:59:14;19.65;;;17.63;;
29550;SDS011;16488;52.396;10.696;2024-02-15T01:01:39;22.35;;;20.33;;
29550;SDS011;16488;52.396;10.696;2024-02-15T01:04:06;19.65;;;16.63;;
29550;SDS011;16488;52.396;10.696;2024-02-15T01:06:32;17.95;;;16.13;;
29550;SDS011;16488;52.396;10.696;2024-02-15T01:08:59;16.10;;;14.02;;
29550;SDS011;16488;52.396;10.696;2024-02-15T01:11:26;16.70;;;15.05;;
29550;SDS011;16488;52.396;10.696;2024-02-15T01:13:53;16.40;;;14.65;;
29550;SDS011;16488;52.396;10.696;2024-02-15T01:16:19;22.20;;;20.30;;
29550;SDS011;16488;52.396;10.696;2024-02-15T01:18:46;17.23;;;15.45;;
29550;SDS011;16488;52.396;10.696;2024-02-15T01:21:12;20.52;;;15.27;;
29550;SDS011;16488;52.396;10.696;2024-02-15T01:23:38;18.85;;;17.00;;
29550;SDS011;16488;52.396;10.696;2024-02-15T01:26:04;21.10;;;19.15;;
29550;SDS011;16488;52.396;10.696;2024-02-15T01:28:30;19.17;;;17.33;;
29550;SDS011;16488;52.396;10.696;2024-02-15T01:30:55;18.15;;;16.42;;
29550;SDS011;16488;52.396;10.696;2024-02-15T01:33:21;17.67;;;15.90;;
29550;SDS011;16488;52.396;10.696;2024-02-15T01:35:47;21.70;;;19.75;;
29550;SDS011;16488;52.396;10.696;2024-02-15T01:38:13;19.35;;;17.55;;
29550;SDS011;16488;52.396;10.696;2024-02-15T01:40:39;20.85;;;18.70;;
29550;SDS011;16488;52.396;10.696;2024-02-15T01:43:05;17.98;;;16.10;;
29550;SDS011;16488;52.396;10.696;2024-02-15T01:45:31;25.00;;;22.77;;
29550;SDS011;16488;52.396;10.696;2024-02-15T01:47:56;23.60;;;21.60;;
29550;SDS011;16488;52.396;10.696;2024-02-15T01:50:23;16.67;;;15.23;;
29550;SDS011;16488;52.396;10.696;2024-02-15T01:52:51;19.15;;;17.38;;
29550;SDS011;16488;52.396;10.696;2024-02-15T01:55:19;21.10;;;19.13;;
29550;SDS011;16488;52.396;10.696;2024-02-15T02:00:12;22.65;;;20.63;;
29550;SDS011;16488;52.396;10.696;2024-02-15T02:02:41;16.75;;;15.20;;
29550;SDS011;16488;52.396;10.696;2024-02-15T02:05:08;17.13;;;15.32;;
29550;SDS011;16488;52.396;10.696;2024-02-15T02:07:33;19.83;;;17.95;;
29550;SDS011;16488;52.396;10.696;2024-02-15T02:10:00;19.02;;;17.38;;
29550;SDS011;16488;52.396;10.696;2024-02-15T02:12:26;16.30;;;14.68;;
29550;SDS011;16488;52.396;10.696;2024-02-15T02:14:52;16.63;;;15.00;;
29550;SDS011;16488;52.396;10.696;2024-02-15T02:17:19;22.98;;;21.05;;
29550;SDS011;16488;52.396;10.696;2024-02-15T02:19:45;22.10;;;18.85;;
29550;SDS011;16488;52.396;10.696;2024-02-15T02:22:11;20.05;;;17.98;;
29550;SDS011;16488;52.396;10.696;2024-02-15T02:27:28;23.30;;;21.42;;
29550;SDS011;16488;52.396;10.696;2024-02-15T02:29:55;20.90;;;19.10;;
29550;SDS011;16488;52.396;10.696;2024-02-15T02:32:22;19.08;;;17.42;;
29550;SDS011;16488;52.396;10.696;2024-02-15T02:34:47;18.25;;;16.38;;
29550;SDS011;16488;52.396;10.696;2024-02-15T02:37:13;18.20;;;16.58;;
29550;SDS011;16488;52.396;10.696;2024-02-15T02:39:38;14.52;;;12.93;;
29550;SDS011;16488;52.396;10.696;2024-02-15T02:42:04;15.73;;;14.50;;
29550;SDS011;16488;52.396;10.696;2024-02-15T02:44:30;25.35;;;23.25;;
29550;SDS011;16488;52.396;10.696;2024-02-15T02:46:56;21.83;;;20.08;;
29550;SDS011;16488;52.396;10.696;2024-02-15T02:49:22;16.17;;;14.65;;
29550;SDS011;16488;52.396;10.696;2024-02-15T02:51:48;17.50;;;16.15;;
29550;SDS011;16488;52.396;10.696;2024-02-15T02:54:13;18.17;;;16.65;;
29550;SDS011;16488;52.396;10.696;2024-02-15T02:56:40;14.38;;;12.45;;
29550;SDS011;16488;52.396;10.696;2024-02-15T02:59:05;12.75;;;11.55;;
29550;SDS011;16488;52.396;10.696;2024-02-15T03:01:33;19.80;;;18.20;;
29550;SDS011;16488;52.396;10.696;2024-02-15T03:03:58;15.88;;;14.48;;
29550;SDS011;16488;52.396;10.696;2024-02-15T03:06:24;12.35;;;11.15;;
29550;SDS011;16488;52.396;10.696;2024-02-15T03:08:50;13.00;;;11.25;;
29550;SDS011;16488;52.396;10.696;2024-02-15T03:11:19;19.25;;;17.42;;
29550;SDS011;16488;52.396;10.696;2024-02-15T03:13:45;13.68;;;12.52;;
29550;SDS011;16488;52.396;10.696;2024-02-15T03:16:10;22.95;;;17.08;;
29550;SDS011;16488;52.396;10.696;2024-02-15T03:18:36;13.35;;;11.98;;
29550;SDS011;16488;52.396;10.696;2024-02-15T03:21:02;17.60;;;16.15;;
29550;SDS011;16488;52.396;10.696;2024-02-15T03:23:29;14.00;;;11.27;;
29550;SDS011;16488;52.396;10.696;2024-02-15T03:25:55;18.15;;;16.42;;
29550;SDS011;16488;52.396;10.696;2024-02-15T03:28:21;16.45;;;13.60;;
29550;SDS011;16488;52.396;10.696;2024-02-15T03:30:49;15.05;;;12.68;;
29550;SDS011;16488;52.396;10.696;2024-02-15T03:33:15;13.35;;;12.00;;
29550;SDS011;16488;52.396;10.696;2024-02-15T03:35:41;10.50;;;9.48;;
29550;SDS011;16488;52.396;10.696;2024-02-15T03:38:07;14.80;;;13.25;;
29550;SDS011;16488;52.396;10.696;2024-02-15T03:40:32;14.13;;;9.63;;
29550;SDS011;16488;52.396;10.696;2024-02-15T03:42:58;11.73;;;10.50;;
29550;SDS011;16488;52.396;10.696;2024-02-15T03:45:24;14.32;;;12.93;;
29550;SDS011;16488;52.396;10.696;2024-02-15T03:47:53;13.63;;;12.18;;
29550;SDS011;16488;52.396;10.696;2024-02-15T03:50:21;14.90;;;12.27;;
29550;SDS011;16488;52.396;10.696;2024-02-15T03:52:46;21.80;;;20.02;;
29550;SDS011;16488;52.396;10.696;2024-02-15T03:57:39;23.45;;;21.35;;
29550;SDS011;16488;52.396;10.696;2024-02-15T04:00:06;27.70;;;25.65;;
29550;SDS011;16488;52.396;10.696;2024-02-15T04:02:33;16.73;;;15.15;;
29550;SDS011;16488;52.396;10.696;2024-02-15T04:05:00;13.93;;;12.70;;
29550;SDS011;16488;52.396;10.696;2024-02-15T04:07:26;13.50;;;12.30;;
29550;SDS011;16488;52.396;10.696;2024-02-15T04:09:55;17.85;;;16.52;;
29550;SDS011;16488;52.396;10.696;2024-02-15T04:12:20;21.92;;;20.27;;
29550;SDS011;16488;52.396;10.696;2024-02-15T04:14:46;14.23;;;13.02;;
29550;SDS011;16488;52.396;10.696;2024-02-15T04:17:13;24.52;;;22.55;;
29550;SDS011;16488;52.396;10.696;2024-02-15T04:19:42;11.43;;;10.38;;
29550;SDS011;16488;52.396;10.696;2024-02-15T04:22:09;11.32;;;10.23;;
29550;SDS011;16488;52.396;10.696;2024-02-15T04:24:35;13.55;;;12.23;;
29550;SDS011;16488;52.396;10.696;2024-02-15T04:27:08;15.48;;;14.05;;
29550;SDS011;16488;52.396;10.696;2024-02-15T04:29:38;12.30;;;11.10;;
29550;SDS011;16488;52.396;10.696;2024-02-15T04:32:06;9.93;;;8.98;;
29550;SDS011;16488;52.396;10.696;2024-02-15T04:34:41;11.10;;;10.05;;
29550;SDS011;16488;52.396;10.696;2024-02-15T04:37:07;11.88;;;10.65;;
29550;SDS011;16488;52.396;10.696;2024-02-15T04:39:35;9.30;;;8.40;;
29550;SDS011;16488;52.396;10.696;2024-02-15T04:42:01;7.93;;;7.13;;
29550;SDS011;16488;52.396;10.696;2024-02-15T04:44:28;12.40;;;9.55;;
29550;SDS011;16488;52.396;10.696;2024-02-15T04:46:53;6.55;;;5.60;;
29550;SDS011;16488;52.396;10.696;2024-02-15T04:49:20;5.88;;;5.13;;
29550;SDS011;16488;52.396;10.696;2024-02-15T04:51:46;11.38;;;10.38;;
29550;SDS011;16488;52.396;10.696;2024-02-15T04:54:14;8.23;;;6.97;;
29550;SDS011;16488;52.396;10.696;2024-02-15T04:56:41;11.30;;;7.40;;
29550;SDS011;16488;52.396;10.696;2024-02-15T04:59:07;8.88;;;6.68;;
29550;SDS011;16488;52.396;10.696;2024-02-15T05:01:34;11.05;;;7.47;;
29550;SDS011;16488;52.396;10.696;2024-02-15T05:04:00;9.60;;;8.80;;
29550;SDS011;16488;52.396;10.696;2024-02-15T05:06:31;11.65;;;9.90;;
29550;SDS011;16488;52.396;10.696;2024-02-15T05:08:57;8.50;;;7.63;;
29550;SDS011;16488;52.396;10.696;2024-02-15T05:11:25;10.30;;;5.90;;
29550;SDS011;16488;52.396;10.696;2024-02-15T05:13:51;9.82;;;8.65;;
29550;SDS011;16488;52.396;10.696;2024-02-15T05:16:17;9.57;;;5.55;;
29550;SDS011;16488;52.396;10.696;2024-02-15T05:21:10;8.60;;;7.88;;
29550;SDS011;16488;52.396;10.696;2024-02-15T05:23:36;7.20;;;6.53;;
29550;SDS011;16488;52.396;10.696;2024-02-15T05:26:04;6.68;;;5.95;;
29550;SDS011;16488;52.396;10.696;2024-02-15T05:28:33;6.10;;;5.50;;
29550;SDS011;16488;52.396;10.696;2024-02-15T05:33:42;6.78;;;5.13;;
29550;SDS011;16488;52.396;10.696;2024-02-15T05:36:12;9.23;;;5.03;;
29550;SDS011;16488;52.396;10.696;2024-02-15T05:38:41;6.45;;;5.82;;
29550;SDS011;16488;52.396;10.696;2024-02-15T05:41:10;10.05;;;9.10;;
29550;SDS011;16488;52.396;10.696;2024-02-15T05:43:36;9.00;;;8.13;;
29550;SDS011;16488;52.396;10.696;2024-02-15T05:46:03;7.05;;;6.40;;
29550;SDS011;16488;52.396;10.696;2024-02-15T05:48:29;7.65;;;6.95;;
29550;SDS011;16488;52.396;10.696;2024-02-15T05:50:55;8.57;;;7.75;;
29550;SDS011;16488;52.396;10.696;2024-02-15T05:53:22;11.88;;;6.40;;
29550;SDS011;16488;52.396;10.696;2024-02-15T05:58:14;8.52;;;7.60;;
29550;SDS011;16488;52.396;10.696;2024-02-15T06:00:40;7.97;;;5.90;;
29550;SDS011;16488;52.396;10.696;2024-02-15T06:03:06;10.07;;;9.18;;
29550;SDS011;16488;52.396;10.696;2024-02-15T06:05:34;11.48;;;8.50;;
29550;SDS011;16488;52.396;10.696;2024-02-15T06:08:00;13.25;;;10.38;;
29550;SDS011;16488;52.396;10.696;2024-02-15T06:10:26;14.55;;;13.35;;
29550;SDS011;16488;52.396;10.696;2024-02-15T06:12:52;41.15;;;37.35;;
29550;SDS011;16488;52.396;10.696;2024-02-15T06:15:17;12.43;;;11.40;;
29550;SDS011;16488;52.396;10.696;2024-02-15T06:17:43;6.97;;;4.45;;
29550;SDS011;16488;52.396;10.696;2024-02-15T06:20:12;7.22;;;5.32;;
29550;SDS011;16488;52.396;10.696;2024-02-15T06:22:45;10.98;;;4.72;;
29550;SDS011;16488;52.396;10.696;2024-02-15T06:25:11;4.82;;;3.33;;
29550;SDS011;16488;52.396;10.696;2024-02-15T06:27:38;6.10;;;3.80;;
29550;SDS011;16488;52.396;10.696;2024-02-15T06:30:09;6.05;;;3.90;;
29550;SDS011;16488;52.396;10.696;2024-02-15T06:32:56;7.97;;;3.40;;
29550;SDS011;16488;52.396;10.696;2024-02-15T06:35:41;7.60;;;4.65;;
29550;SDS011;16488;52.396;10.696;2024-02-15T06:38:26;6.78;;;4.38;;
29550;SDS011;16488;52.396;10.696;2024-02-15T06:41:10;9.40;;;4.53;;
29550;SDS011;16488;52.396;10.696;2024-02-15T06:43:36;14.23;;;13.10;;
29550;SDS011;16488;52.396;10.696;2024-02-15T06:46:02;13.50;;;6.60;;
29550;SDS011;16488;52.396;10.696;2024-02-15T06:48:31;5.65;;;3.58;;
29550;SDS011;16488;52.396;10.696;2024-02-15T06:50:56;19.60;;;18.23;;
29550;SDS011;16488;52.396;10.696;2024-02-15T06:53:22;56.50;;;53.25;;
29550;SDS011;16488;52.396;10.696;2024-02-15T06:55:47;246.00;;;230.48;;
29550;SDS011;16488;52.396;10.696;2024-02-15T06:58:14;468.83;;;422.13;;
29550;SDS011;16488;52.396;10.696;2024-02-15T07:00:41;661.00;;;425.20;;
29550;SDS011;16488;52.396;10.696;2024-02-15T07:03:07;627.80;;;441.90;;
29550;SDS011;16488;52.396;10.696;2024-02-15T07:07:59;543.90;;;375.17;;
29550;SDS011;16488;52.396;10.696;2024-02-15T07:10:25;547.95;;;378.92;;
29550;SDS011;16488;52.396;10.696;2024-02-15T07:12:51;561.53;;;392.85;;
29550;SDS011;16488;52.396;10.696;2024-02-15T07:15:17;700.88;;;408.48;;
29550;SDS011;16488;52.396;10.696;2024-02-15T07:17:42;756.33;;;406.30;;
29550;SDS011;16488;52.396;10.696;2024-02-15T07:20:10;641.22;;;372.80;;
29550;SDS011;16488;52.396;10.696;2024-02-15T07:22:37;777.30;;;378.67;;
29550;SDS011;16488;52.396;10.696;2024-02-15T07:25:04;664.53;;;361.33;;
29550;SDS011;16488;52.396;10.696;2024-02-15T07:29:55;672.90;;;324.20;;
29550;SDS011;16488;52.396;10.696;2024-02-15T07:32:21;779.72;;;328.55;;
29550;SDS011;16488;52.396;10.696;2024-02-15T07:34:47;643.10;;;324.15;;
29550;SDS011;16488;52.396;10.696;2024-02-15T07:37:13;765.13;;;336.65;;
29550;SDS011;16488;52.396;10.696;2024-02-15T07:39:40;615.55;;;340.80;;
29550;SDS011;16488;52.396;10.696;2024-02-15T07:42:06;788.55;;;352.75;;
29550;SDS011;16488;52.396;10.696;2024-02-15T07:44:33;638.78;;;359.10;;
29550;SDS011;16488;52.396;10.696;2024-02-15T07:47:01;716.67;;;338.33;;
29550;SDS011;16488;52.396;10.696;2024-02-15T07:49:27;805.95;;;348.15;;
29550;SDS011;16488;52.396;10.696;2024-02-15T07:51:53;684.70;;;371.58;;
29550;SDS011;16488;52.396;10.696;2024-02-15T07:54:19;563.05;;;337.77;;
29550;SDS011;16488;52.396;10.696;2024-02-15T07:56:48;848.50;;;400.83;;
29550;SDS011;16488;52.396;10.696;2024-02-15T07:59:14;851.10;;;405.98;;
29550;SDS011;16488;52.396;10.696;2024-02-15T08:01:43;814.08;;;343.30;;
29550;SDS011;16488;52.396;10.696;2024-02-15T08:04:12;829.90;;;390.23;;
29550;SDS011;16488;52.396;10.696;2024-02-15T08:06:38;855.00;;;411.42;;
29550;SDS011;16488;52.396;10.696;2024-02-15T08:09:03;852.58;;;404.30;;
29550;SDS011;16488;52.396;10.696;2024-02-15T08:11:37;848.80;;;387.90;;
29550;SDS011;16488;52.396;10.696;2024-02-15T08:14:04;853.17;;;409.85;;
29550;SDS011;16488;52.396;10.696;2024-02-15T08:16:33;832.70;;;445.63;;
29550;SDS011;16488;52.396;10.696;2024-02-15T08:18:59;854.63;;;442.33;;
29550;SDS011;16488;52.396;10.696;2024-02-15T08:21:30;849.97;;;446.42;;
29550;SDS011;16488;52.396;10.696;2024-02-15T08:24:03;865.35;;;465.00;;
29550;SDS011;16488;52.396;10.696;2024-02-15T08:26:35;851.58;;;416.98;;
29550;SDS011;16488;52.396;10.696;2024-02-15T08:29:02;853.33;;;408.67;;
29550;SDS011;16488;52.396;10.696;2024-02-15T08:31:29;857.83;;;414.77;;
29550;SDS011;16488;52.396;10.696;2024-02-15T08:33:58;871.67;;;455.23;;
29550;SDS011;16488;52.396;10.696;2024-02-15T08:36:25;794.05;;;420.98;;
29550;SDS011;16488;52.396;10.696;2024-02-15T08:38:51;734.67;;;457.20;;
29550;SDS011;16488;52.396;10.696;2024-02-15T08:41:17;706.67;;;444.05;;
29550;SDS011;16488;52.396;10.696;2024-02-15T08:46:09;699.35;;;429.38;;
29550;SDS011;16488;52.396;10.696;2024-02-15T08:48:35;722.47;;;428.63;;
29550;SDS011;16488;52.396;10.696;2024-02-15T08:51:01;647.28;;;405.05;;
29550;SDS011;16488;52.396;10.696;2024-02-15T08:53:27;782.30;;;445.67;;
29550;SDS011;16488;52.396;10.696;2024-02-15T08:55:53;611.20;;;423.65;;
29550;SDS011;16488;52.396;10.696;2024-02-15T08:58:19;679.67;;;415.17;;
29550;SDS011;16488;52.396;10.696;2024-02-15T09:00:46;599.38;;;423.42;;
29550;SDS011;16488;52.396;10.696;2024-02-15T09:03:12;526.65;;;398.45;;
29550;SDS011;16488;52.396;10.696;2024-02-15T09:05:38;588.92;;;432.17;;
29550;SDS011;16488;52.396;10.696;2024-02-15T09:08:05;833.75;;;434.77;;
29550;SDS011;16488;52.396;10.696;2024-02-15T09:12:57;871.42;;;448.83;;
29550;SDS011;16488;52.396;10.696;2024-02-15T09:15:23;858.05;;;440.50;;
29550;SDS011;16488;52.396;10.696;2024-02-15T09:17:48;874.80;;;444.58;;
29550;SDS011;16488;52.396;10.696;2024-02-15T09:20:15;884.15;;;454.35;;
29550;SDS011;16488;52.396;10.696;2024-02-15T09:22:46;858.78;;;471.15;;
29550;SDS011;16488;52.396;10.696;2024-02-15T09:25:13;858.47;;;489.13;;
29550;SDS011;16488;52.396;10.696;2024-02-15T09:27:40;866.33;;;489.35;;
29550;SDS011;16488;52.396;10.696;2024-02-15T09:30:06;841.70;;;499.88;;
29550;SDS011;16488;52.396;10.696;2024-02-15T09:32:35;818.75;;;512.45;;
29550;SDS011;16488;52.396;10.696;2024-02-15T09:35:01;831.78;;;520.60;;
29550;SDS011;16488;52.396;10.696;2024-02-15T09:39:53;821.30;;;496.63;;
29550;SDS011;16488;52.396;10.696;2024-02-15T09:42:24;800.10;;;484.55;;
29550;SDS011;16488;52.396;10.696;2024-02-15T09:44:51;805.28;;;484.63;;
29550;SDS011;16488;52.396;10.696;2024-02-15T09:47:17;892.53;;;481.02;;
29550;SDS011;16488;52.396;10.696;2024-02-15T09:49:44;896.72;;;497.08;;
29550;SDS011;16488;52.396;10.696;2024-02-15T09:52:10;902.67;;;519.95;;
29550;SDS011;16488;52.396;10.696;2024-02-15T09:57:08;886.10;;;513.17;;
29550;SDS011;16488;52.396;10.696;2024-02-15T09:59:38;875.38;;;538.65;;
29550;SDS011;16488;52.396;10.696;2024-02-15T10:02:05;823.15;;;559.88;;
29550;SDS011;16488;52.396;10.696;2024-02-15T10:04:36;786.92;;;558.03;;
29550;SDS011;16488;52.396;10.696;2024-02-15T10:07:04;847.70;;;569.55;;
29550;SDS011;16488;52.396;10.696;2024-02-15T10:11:59;834.28;;;571.25;;
29550;SDS011;16488;52.396;10.696;2024-02-15T10:14:26;786.72;;;629.13;;
29550;SDS011;16488;52.396;10.696;2024-02-15T10:16:53;723.88;;;634.33;;
29550;SDS011;16488;52.396;10.696;2024-02-15T10:21:53;721.70;;;646.33;;
29550;SDS011;16488;52.396;10.696;2024-02-15T10:24:22;894.95;;;659.67;;
29550;SDS011;16488;52.396;10.696;2024-02-15T10:26:59;905.55;;;630.38;;
29550;SDS011;16488;52.396;10.696;2024-02-15T10:29:29;840.95;;;617.92;;
29550;SDS011;16488;52.396;10.696;2024-02-15T10:31:59;846.90;;;620.70;;
29550;SDS011;16488;52.396;10.696;2024-02-15T10:34:25;917.30;;;613.65;;
29550;SDS011;16488;52.396;10.696;2024-02-15T10:36:55;810.42;;;612.70;;
29550;SDS011;16488;52.396;10.696;2024-02-15T10:39:36;775.38;;;616.47;;
29550;SDS011;16488;52.396;10.696;2024-02-15T10:42:02;797.67;;;622.85;;
29550;SDS011;16488;52.396;10.696;2024-02-15T10:44:31;744.95;;;632.88;;
29550;SDS011;16488;52.396;10.696;2024-02-15T10:46:59;709.70;;;632.78;;
29550;SDS011;16488;52.396;10.696;2024-02-15T10:49:25;687.67;;;618.85;;
29550;SDS011;16488;52.396;10.696;2024-02-15T10:51:56;694.75;;;625.35;;
29550;SDS011;16488;52.396;10.696;2024-02-15T10:54:43;720.40;;;626.65;;
29550;SDS011;16488;52.396;10.696;2024-02-15T10:57:18;690.05;;;616.55;;
29550;SDS011;16488;52.396;10.696;2024-02-15T10:59:56;695.28;;;628.13;;
29550;SDS011;16488;52.396;10.696;2024-02-15T11:02:26;716.33;;;613.65;;
29550;SDS011;16488;52.396;10.696;2024-02-15T11:05:01;702.30;;;629.17;;
29550;SDS011;16488;52.396;10.696;2024-02-15T11:07:30;697.35;;;632.05;;
29550;SDS011;16488;52.396;10.696;2024-02-15T11:09:57;703.55;;;633.42;;
29550;SDS011;16488;52.396;10.696;2024-02-15T11:12:24;696.20;;;629.45;;
29550;SDS011;16488;52.396;10.696;2024-02-15T11:14:53;687.53;;;622.08;;
29550;SDS011;16488;52.396;10.696;2024-02-15T11:20:00;666.78;;;601.55;;
29550;SDS011;16488;52.396;10.696;2024-02-15T11:22:25;643.47;;;581.63;;
29550;SDS011;16488;52.396;10.696;2024-02-15T11:27:27;621.40;;;559.03;;
29550;SDS011;16488;52.396;10.696;2024-02-15T11:29:57;724.15;;;586.28;;
29550;SDS011;16488;52.396;10.696;2024-02-15T11:32:35;704.63;;;583.15;;
29550;SDS011;16488;52.396;10.696;2024-02-15T11:35:08;709.22;;;605.10;;
29550;SDS011;16488;52.396;10.696;2024-02-15T11:40:16;643.33;;;580.53;;
29550;SDS011;16488;52.396;10.696;2024-02-15T11:42:47;653.30;;;589.72;;
29550;SDS011;16488;52.396;10.696;2024-02-15T11:45:14;662.30;;;601.17;;
29550;SDS011;16488;52.396;10.696;2024-02-15T11:47:43;838.33;;;611.45;;
29550;SDS011;16488;52.396;10.696;2024-02-15T11:50:14;790.78;;;601.63;;
29550;SDS011;16488;52.396;10.696;2024-02-15T11:52:40;720.20;;;607.17;;
29550;SDS011;16488;52.396;10.696;2024-02-15T11:55:07;692.95;;;620.58;;
29550;SDS011;16488;52.396;10.696;2024-02-15T11:57:38;634.92;;;571.00;;
29550;SDS011;16488;52.396;10.696;2024-02-15T12:00:19;727.50;;;603.65;;
29550;SDS011;16488;52.396;10.696;2024-02-15T12:03:05;639.05;;;577.30;;
29550;SDS011;16488;52.396;10.696;2024-02-15T12:05:49;666.13;;;602.00;;
29550;SDS011;16488;52.396;10.696;2024-02-15T12:08:33;636.03;;;579.58;;
29550;SDS011;16488;52.396;10.696;2024-02-15T12:11:17;624.20;;;567.15;;
29550;SDS011;16488;52.396;10.696;2024-02-15T12:14:02;604.80;;;552.28;;
29550;SDS011;16488;52.396;10.696;2024-02-15T12:16:46;605.42;;;556.08;;
29550;SDS011;16488;52.396;10.696;2024-02-15T12:19:30;832.55;;;569.05;;
29550;SDS011;16488;52.396;10.696;2024-02-15T12:21:56;680.03;;;606.88;;
29550;SDS011;16488;52.396;10.696;2024-02-15T12:24:22;635.47;;;566.38;;
29550;SDS011;16488;52.396;10.696;2024-02-15T12:26:52;616.85;;;565.10;;
29550;SDS011;16488;52.396;10.696;2024-02-15T12:29:26;655.00;;;588.50;;
29550;SDS011;16488;52.396;10.696;2024-02-15T12:31:51;608.92;;;559.53;;
29550;SDS011;16488;52.396;10.696;2024-02-15T12:34:18;567.15;;;524.17;;
29550;SDS011;16488;52.396;10.696;2024-02-15T12:36:45;600.33;;;552.35;;
29550;SDS011;16488;52.396;10.696;2024-02-15T12:39:14;524.72;;;488.13;;
29550;SDS011;16488;52.396;10.696;2024-02-15T12:41:48;477.85;;;445.55;;
29550;SDS011;16488;52.396;10.696;2024-02-15T12:44:17;444.77;;;415.73;;
29550;SDS011;16488;52.396;10.696;2024-02-15T12:46:45;619.47;;;560.33;;
29550;SDS011;16488;52.396;10.696;2024-02-15T12:51:50;641.90;;;578.03;;
29550;SDS011;16488;52.396;10.696;2024-02-15T12:54:20;393.25;;;369.45;;
29550;SDS011;16488;52.396;10.696;2024-02-15T12:56:47;463.42;;;433.25;;
29550;SDS011;16488;52.396;10.696;2024-02-15T12:59:18;603.47;;;552.30;;
29550;SDS011;16488;52.396;10.696;2024-02-15T13:01:48;570.40;;;524.08;;
29550;SDS011;16488;52.396;10.696;2024-02-15T13:04:23;334.25;;;314.65;;
29550;SDS011;16488;52.396;10.696;2024-02-15T13:06:53;317.67;;;299.27;;
29550;SDS011;16488;52.396;10.696;2024-02-15T13:09:19;166.43;;;156.70;;
29550;SDS011;16488;52.396;10.696;2024-02-15T13:11:47;149.93;;;141.07;;
29550;SDS011;16488;52.396;10.696;2024-02-15T13:14:14;122.65;;;115.20;;
29550;SDS011;16488;52.396;10.696;2024-02-15T13:16:40;114.78;;;107.95;;
29550;SDS011;16488;52.396;10.696;2024-02-15T13:19:08;290.83;;;273.40;;
29550;SDS011;16488;52.396;10.696;2024-02-15T13:21:33;590.67;;;539.55;;
29550;SDS011;16488;52.396;10.696;2024-02-15T13:23:59;278.23;;;262.02;;
29550;SDS011;16488;52.396;10.696;2024-02-15T13:26:29;199.07;;;187.55;;
29550;SDS011;16488;52.396;10.696;2024-02-15T13:28:55;155.32;;;146.48;;
29550;SDS011;16488;52.396;10.696;2024-02-15T13:31:21;74.78;;;69.85;;
29550;SDS011;16488;52.396;10.696;2024-02-15T13:33:47;87.65;;;82.40;;
29550;SDS011;16488;52.396;10.696;2024-02-15T13:36:13;32.08;;;29.73;;
29550;SDS011;16488;52.396;10.696;2024-02-15T13:38:40;24.05;;;22.42;;
29550;SDS011;16488;52.396;10.696;2024-02-15T13:41:07;51.88;;;48.75;;
29550;SDS011;16488;52.396;10.696;2024-02-15T13:43:33;133.68;;;125.93;;
29550;SDS011;16488;52.396;10.696;2024-02-15T13:45:59;83.85;;;78.95;;
29550;SDS011;16488;52.396;10.696;2024-02-15T13:48:27;65.75;;;61.70;;
29550;SDS011;16488;52.396;10.696;2024-02-15T13:50:55;87.22;;;82.25;;
29550;SDS011;16488;52.396;10.696;2024-02-15T13:53:20;59.05;;;55.55;;
29550;SDS011;16488;52.396;10.696;2024-02-15T13:55:46;62.75;;;58.75;;
29550;SDS011;16488;52.396;10.696;2024-02-15T13:58:13;27.33;;;25.33;;
29550;SDS011;16488;52.396;10.696;2024-02-15T14:00:39;21.83;;;20.55;;
29550;SDS011;16488;52.396;10.696;2024-02-15T14:03:07;27.98;;;26.02;;
29550;SDS011;16488;52.396;10.696;2024-02-15T14:05:35;33.08;;;30.92;;
29550;SDS011;16488;52.396;10.696;2024-02-15T14:08:02;17.25;;;16.08;;
29550;SDS011;16488;52.396;10.696;2024-02-15T14:10:29;35.95;;;33.75;;
29550;SDS011;16488;52.396;10.696;2024-02-15T14:12:56;23.30;;;21.35;;
29550;SDS011;16488;52.396;10.696;2024-02-15T14:15:26;73.82;;;69.15;;
29550;SDS011;16488;52.396;10.696;2024-02-15T14:17:52;81.18;;;76.13;;
29550;SDS011;16488;52.396;10.696;2024-02-15T14:20:18;170.35;;;160.25;;
29550;SDS011;16488;52.396;10.696;2024-02-15T14:22:47;102.30;;;96.38;;
29550;SDS011;16488;52.396;10.696;2024-02-15T14:25:21;27.90;;;25.67;;
29550;SDS011;16488;52.396;10.696;2024-02-15T14:30:15;85.30;;;80.20;;
29550;SDS011;16488;52.396;10.696;2024-02-15T14:32:59;92.85;;;87.45;;
29550;SDS011;16488;52.396;10.696;2024-02-15T14:35:32;112.35;;;105.32;;
29550;SDS011;16488;52.396;10.696;2024-02-15T14:38:03;48.17;;;45.30;;
29550;SDS011;16488;52.396;10.696;2024-02-15T14:40:40;82.72;;;77.88;;
29550;SDS011;16488;52.396;10.696;2024-02-15T14:43:15;103.82;;;97.85;;
29550;SDS011;16488;52.396;10.696;2024-02-15T14:45:43;50.17;;;47.33;;
29550;SDS011;16488;52.396;10.696;2024-02-15T14:48:10;49.00;;;45.78;;
29550;SDS011;16488;52.396;10.696;2024-02-15T14:50:36;41.20;;;38.83;;
29550;SDS011;16488;52.396;10.696;2024-02-15T14:55:27;20.70;;;19.25;;
29550;SDS011;16488;52.396;10.696;2024-02-15T14:57:56;15.50;;;14.25;;